sensor_id;sensor_type;location;lat;lon;timestamp;temperature;humidity
59234;DHT22;60776;51.702;7.462;2023-06-14T00:00:18;19.50;54.30
59234;DHT22;60776;51.702;7.462;2023-06-14T00:02:45;19.50;53.80
59234;DHT22;60776;51.702;7.462;2023-06-14T00:05:11;19.40;53.80
59234;DHT22;60776;51.702;7.462;2023-06-14T00:07:41;19.40;53.90
59234;DHT22;60776;51.702;7.462;2023-06-14T00:10:11;19.30;53.80
59234;DHT22;60776;51.702;7.462;2023-06-14T00:12:38;19.30;53.80
59234;DHT22;60776;51.702;7.462;2023-06-14T00:15:05;19.20;53.90
59234;DHT22;60776;51.702;7.462;2023-06-14T00:17:31;19.20;53.80
59234;DHT22;60776;51.702;7.462;2023-06-14T00:20:00;19.10;53.70
59234;DHT22;60776;51.702;7.462;2023-06-14T00:22:25;19.20;53.90
59234;DHT22;60776;51.702;7.462;2023-06-14T00:24:52;19.10;53.80
59234;DHT22;60776;51.702;7.462;2023-06-14T00:27:17;19.10;53.80
59234;DHT22;60776;51.702;7.462;2023-06-14T00:29:43;19.10;53.80
59234;DHT22;60776;51.702;7.462;2023-06-14T00:32:09;19.00;54.00
59234;DHT22;60776;51.702;7.462;2023-06-14T00:34:35;19.00;54.00
59234;DHT22;60776;51.702;7.462;2023-06-14T00:37:01;18.90;54.10
59234;DHT22;60776;51.702;7.462;2023-06-14T00:39:27;18.90;54.30
59234;DHT22;60776;51.702;7.462;2023-06-14T00:41:52;18.90;54.30
59234;DHT22;60776;51.702;7.462;2023-06-14T00:44:18;18.80;54.20
59234;DHT22;60776;51.702;7.462;2023-06-14T00:46:47;18.80;54.20
59234;DHT22;60776;51.702;7.462;2023-06-14T00:49:14;18.80;54.40
59234;DHT22;60776;51.702;7.462;2023-06-14T00:51:42;18.70;54.40
59234;DHT22;60776;51.702;7.462;2023-06-14T00:54:08;18.70;54.60
59234;DHT22;60776;51.702;7.462;2023-06-14T00:56:36;18.60;54.60
59234;DHT22;60776;51.702;7.462;2023-06-14T00:59:02;18.60;54.70
59234;DHT22;60776;51.702;7.462;2023-06-14T01:01:28;18.50;54.70
59234;DHT22;60776;51.702;7.462;2023-06-14T01:03:58;18.50;54.80
59234;DHT22;60776;51.702;7.462;2023-06-14T01:09:32;18.40;55.00
59234;DHT22;60776;51.702;7.462;2023-06-14T01:12:21;18.40;55.20
59234;DHT22;60776;51.702;7.462;2023-06-14T01:14:50;18.30;55.40
59234;DHT22;60776;51.702;7.462;2023-06-14T01:17:17;18.30;55.40
59234;DHT22;60776;51.702;7.462;2023-06-14T01:19:43;18.30;55.40
59234;DHT22;60776;51.702;7.462;2023-06-14T01:22:09;18.20;55.40
59234;DHT22;60776;51.702;7.462;2023-06-14T01:24:36;18.20;55.70
59234;DHT22;60776;51.702;7.462;2023-06-14T01:27:02;18.10;55.70
59234;DHT22;60776;51.702;7.462;2023-06-14T01:29:29;18.10;55.80
59234;DHT22;60776;51.702;7.462;2023-06-14T01:32:01;18.00;55.90
59234;DHT22;60776;51.702;7.462;2023-06-14T01:34:27;18.00;56.10
59234;DHT22;60776;51.702;7.462;2023-06-14T01:36:53;17.90;56.10
59234;DHT22;60776;51.702;7.462;2023-06-14T01:39:21;17.90;56.10
59234;DHT22;60776;51.702;7.462;2023-06-14T01:41:49;17.90;56.80
59234;DHT22;60776;51.702;7.462;2023-06-14T01:44:16;17.80;56.30
59234;DHT22;60776;51.702;7.462;2023-06-14T01:46:43;17.80;56.40
59234;DHT22;60776;51.702;7.462;2023-06-14T01:49:10;17.80;56.60
59234;DHT22;60776;51.702;7.462;2023-06-14T01:51:36;17.70;56.50
59234;DHT22;60776;51.702;7.462;2023-06-14T01:54:02;17.60;56.60
59234;DHT22;60776;51.702;7.462;2023-06-14T01:56:27;17.60;56.60
59234;DHT22;60776;51.702;7.462;2023-06-14T01:58:55;17.60;56.70
59234;DHT22;60776;51.702;7.462;2023-06-14T02:01:22;17.60;56.70
59234;DHT22;60776;51.702;7.462;2023-06-14T02:03:48;17.60;56.90
59234;DHT22;60776;51.702;7.462;2023-06-14T02:06:14;17.50;57.00
59234;DHT22;60776;51.702;7.462;2023-06-14T02:08:41;17.50;56.90
59234;DHT22;60776;51.702;7.462;2023-06-14T02:11:08;17.50;56.90
59234;DHT22;60776;51.702;7.462;2023-06-14T02:13:34;17.50;57.00
59234;DHT22;60776;51.702;7.462;2023-06-14T02:16:00;17.40;57.10
59234;DHT22;60776;51.702;7.462;2023-06-14T02:18:26;17.40;57.10
59234;DHT22;60776;51.702;7.462;2023-06-14T02:20:52;17.30;57.00
59234;DHT22;60776;51.702;7.462;2023-06-14T02:23:18;17.40;57.20
59234;DHT22;60776;51.702;7.462;2023-06-14T02:25:44;17.30;57.20
59234;DHT22;60776;51.702;7.462;2023-06-14T02:28:11;17.30;57.40
59234;DHT22;60776;51.702;7.462;2023-06-14T02:30:37;17.30;57.40
59234;DHT22;60776;51.702;7.462;2023-06-14T02:33:03;17.20;57.30
59234;DHT22;60776;51.702;7.462;2023-06-14T02:35:30;17.20;57.40
59234;DHT22;60776;51.702;7.462;2023-06-14T02:37:56;17.20;57.60
59234;DHT22;60776;51.702;7.462;2023-06-14T02:40:22;17.20;57.60
59234;DHT22;60776;51.702;7.462;2023-06-14T02:42:48;17.10;57.60
59234;DHT22;60776;51.702;7.462;2023-06-14T02:45:13;17.10;57.70
59234;DHT22;60776;51.702;7.462;2023-06-14T02:47:39;17.10;57.80
59234;DHT22;60776;51.702;7.462;2023-06-14T02:50:05;17.10;57.80
59234;DHT22;60776;51.702;7.462;2023-06-14T02:52:31;17.10;57.80
59234;DHT22;60776;51.702;7.462;2023-06-14T02:54:58;17.10;57.80
59234;DHT22;60776;51.702;7.462;2023-06-14T02:57:24;17.10;57.90
59234;DHT22;60776;51.702;7.462;2023-06-14T02:59:50;17.00;58.00
59234;DHT22;60776;51.702;7.462;2023-06-14T03:02:15;17.00;58.30
59234;DHT22;60776;51.702;7.462;2023-06-14T03:04:41;16.90;58.40
59234;DHT22;60776;51.702;7.462;2023-06-14T03:07:10;16.90;58.70
59234;DHT22;60776;51.702;7.462;2023-06-14T03:09:36;16.80;59.00
59234;DHT22;60776;51.702;7.462;2023-06-14T03:12:03;16.80;59.00
59234;DHT22;60776;51.702;7.462;2023-06-14T03:14:29;16.80;59.00
59234;DHT22;60776;51.702;7.462;2023-06-14T03:16:56;16.70;59.00
59234;DHT22;60776;51.702;7.462;2023-06-14T03:19:23;16.70;59.30
59234;DHT22;60776;51.702;7.462;2023-06-14T03:21:48;16.70;59.20
59234;DHT22;60776;51.702;7.462;2023-06-14T03:24:15;16.70;59.40
59234;DHT22;60776;51.702;7.462;2023-06-14T03:26:42;16.60;59.50
59234;DHT22;60776;51.702;7.462;2023-06-14T03:29:07;16.60;59.50
59234;DHT22;60776;51.702;7.462;2023-06-14T03:31:34;16.70;59.50
59234;DHT22;60776;51.702;7.462;2023-06-14T03:34:01;16.70;59.60
59234;DHT22;60776;51.702;7.462;2023-06-14T03:36:27;16.80;59.60
59234;DHT22;60776;51.702;7.462;2023-06-14T03:38:56;16.90;59.30
59234;DHT22;60776;51.702;7.462;2023-06-14T03:41:22;17.10;59.20
59234;DHT22;60776;51.702;7.462;2023-06-14T03:43:47;17.50;59.00
59234;DHT22;60776;51.702;7.462;2023-06-14T03:46:13;17.80;58.40
59234;DHT22;60776;51.702;7.462;2023-06-14T03:48:39;18.20;57.80
59234;DHT22;60776;51.702;7.462;2023-06-14T03:51:04;18.50;57.40
59234;DHT22;60776;51.702;7.462;2023-06-14T03:53:31;18.80;56.90
59234;DHT22;60776;51.702;7.462;2023-06-14T03:55:57;19.20;56.40
59234;DHT22;60776;51.702;7.462;2023-06-14T03:58:23;19.50;55.90
59234;DHT22;60776;51.702;7.462;2023-06-14T04:00:49;19.90;55.10
59234;DHT22;60776;51.702;7.462;2023-06-14T04:03:14;20.10;54.50
59234;DHT22;60776;51.702;7.462;2023-06-14T04:05:41;20.40;54.30
59234;DHT22;60776;51.702;7.462;2023-06-14T04:08:08;20.80;53.70
59234;DHT22;60776;51.702;7.462;2023-06-14T04:10:40;21.00;53.10
59234;DHT22;60776;51.702;7.462;2023-06-14T04:13:06;21.40;52.60
59234;DHT22;60776;51.702;7.462;2023-06-14T04:15:32;21.80;52.00
59234;DHT22;60776;51.702;7.462;2023-06-14T04:17:59;21.90;51.30
59234;DHT22;60776;51.702;7.462;2023-06-14T04:20:25;22.20;51.10
59234;DHT22;60776;51.702;7.462;2023-06-14T04:22:52;22.60;50.80
59234;DHT22;60776;51.702;7.462;2023-06-14T04:25:22;23.00;50.20
59234;DHT22;60776;51.702;7.462;2023-06-14T04:27:48;23.40;49.70
59234;DHT22;60776;51.702;7.462;2023-06-14T04:30:15;23.70;49.20
59234;DHT22;60776;51.702;7.462;2023-06-14T04:32:41;24.30;48.60
59234;DHT22;60776;51.702;7.462;2023-06-14T04:35:08;24.70;47.90
59234;DHT22;60776;51.702;7.462;2023-06-14T04:37:34;25.00;47.40
59234;DHT22;60776;51.702;7.462;2023-06-14T04:40:00;25.30;46.70
59234;DHT22;60776;51.702;7.462;2023-06-14T04:42:26;25.60;46.40
59234;DHT22;60776;51.702;7.462;2023-06-14T04:44:56;26.00;45.70
59234;DHT22;60776;51.702;7.462;2023-06-14T04:47:22;26.30;45.10
59234;DHT22;60776;51.702;7.462;2023-06-14T04:49:50;26.40;44.90
59234;DHT22;60776;51.702;7.462;2023-06-14T04:52:18;26.70;44.40
59234;DHT22;60776;51.702;7.462;2023-06-14T04:54:47;26.80;44.30
59234;DHT22;60776;51.702;7.462;2023-06-14T04:57:12;26.90;43.90
59234;DHT22;60776;51.702;7.462;2023-06-14T04:59:39;27.10;44.20
59234;DHT22;60776;51.702;7.462;2023-06-14T05:02:05;27.60;43.60
59234;DHT22;60776;51.702;7.462;2023-06-14T05:04:30;27.60;42.90
59234;DHT22;60776;51.702;7.462;2023-06-14T05:06:56;27.90;42.80
59234;DHT22;60776;51.702;7.462;2023-06-14T05:09:22;28.00;42.80
59234;DHT22;60776;51.702;7.462;2023-06-14T05:11:47;28.30;42.30
59234;DHT22;60776;51.702;7.462;2023-06-14T05:14:13;28.30;41.60
59234;DHT22;60776;51.702;7.462;2023-06-14T05:16:39;28.60;42.20
59234;DHT22;60776;51.702;7.462;2023-06-14T05:19:06;28.80;41.40
59234;DHT22;60776;51.702;7.462;2023-06-14T05:21:32;28.60;41.90
59234;DHT22;60776;51.702;7.462;2023-06-14T05:24:00;28.90;41.60
59234;DHT22;60776;51.702;7.462;2023-06-14T05:26:25;29.00;41.30
59234;DHT22;60776;51.702;7.462;2023-06-14T05:28:57;29.00;40.90
59234;DHT22;60776;51.702;7.462;2023-06-14T05:31:24;29.20;41.40
59234;DHT22;60776;51.702;7.462;2023-06-14T05:33:50;29.40;40.80
59234;DHT22;60776;51.702;7.462;2023-06-14T05:36:16;29.70;40.80
59234;DHT22;60776;51.702;7.462;2023-06-14T05:38:41;30.00;40.50
59234;DHT22;60776;51.702;7.462;2023-06-14T05:41:07;30.30;39.80
59234;DHT22;60776;51.702;7.462;2023-06-14T05:43:33;30.10;39.70
59234;DHT22;60776;51.702;7.462;2023-06-14T05:45:58;30.00;40.20
59234;DHT22;60776;51.702;7.462;2023-06-14T05:48:24;30.00;39.90
59234;DHT22;60776;51.702;7.462;2023-06-14T05:50:50;30.00;40.10
59234;DHT22;60776;51.702;7.462;2023-06-14T05:53:15;30.10;40.00
59234;DHT22;60776;51.702;7.462;2023-06-14T05:55:41;30.00;40.20
59234;DHT22;60776;51.702;7.462;2023-06-14T05:58:07;30.40;39.40
59234;DHT22;60776;51.702;7.462;2023-06-14T06:00:32;30.20;39.60
59234;DHT22;60776;51.702;7.462;2023-06-14T06:02:58;29.90;39.50
59234;DHT22;60776;51.702;7.462;2023-06-14T06:05:24;29.50;40.50
59234;DHT22;60776;51.702;7.462;2023-06-14T06:07:51;30.00;40.20
59234;DHT22;60776;51.702;7.462;2023-06-14T06:10:16;30.80;39.90
59234;DHT22;60776;51.702;7.462;2023-06-14T06:12:42;31.50;38.90
59234;DHT22;60776;51.702;7.462;2023-06-14T06:15:08;32.00;37.90
59234;DHT22;60776;51.702;7.462;2023-06-14T06:17:37;32.40;37.30
59234;DHT22;60776;51.702;7.462;2023-06-14T06:20:04;32.40;37.50
59234;DHT22;60776;51.702;7.462;2023-06-14T06:22:31;32.60;37.00
59234;DHT22;60776;51.702;7.462;2023-06-14T06:24:56;32.10;36.80
59234;DHT22;60776;51.702;7.462;2023-06-14T06:27:22;31.70;37.30
59234;DHT22;60776;51.702;7.462;2023-06-14T06:29:48;31.50;38.00
59234;DHT22;60776;51.702;7.462;2023-06-14T06:32:15;31.10;38.80
59234;DHT22;60776;51.702;7.462;2023-06-14T06:34:40;30.90;38.40
59234;DHT22;60776;51.702;7.462;2023-06-14T06:37:06;31.40;38.30
59234;DHT22;60776;51.702;7.462;2023-06-14T06:39:32;31.70;37.90
59234;DHT22;60776;51.702;7.462;2023-06-14T06:41:58;32.10;37.40
59234;DHT22;60776;51.702;7.462;2023-06-14T06:44:24;32.20;37.20
59234;DHT22;60776;51.702;7.462;2023-06-14T06:46:49;32.20;37.50
59234;DHT22;60776;51.702;7.462;2023-06-14T06:49:15;32.20;37.50
59234;DHT22;60776;51.702;7.462;2023-06-14T06:51:41;32.50;37.00
59234;DHT22;60776;51.702;7.462;2023-06-14T06:54:08;32.60;36.70
59234;DHT22;60776;51.702;7.462;2023-06-14T06:56:35;32.60;36.70
59234;DHT22;60776;51.702;7.462;2023-06-14T06:59:01;32.80;36.20
59234;DHT22;60776;51.702;7.462;2023-06-14T07:01:27;32.20;36.60
59234;DHT22;60776;51.702;7.462;2023-06-14T07:03:54;32.40;37.00
59234;DHT22;60776;51.702;7.462;2023-06-14T07:06:20;32.50;36.80
59234;DHT22;60776;51.702;7.462;2023-06-14T07:08:46;32.10;36.80
59234;DHT22;60776;51.702;7.462;2023-06-14T07:11:15;31.70;37.50
59234;DHT22;60776;51.702;7.462;2023-06-14T07:13:40;31.40;37.80
59234;DHT22;60776;51.702;7.462;2023-06-14T07:16:06;31.90;37.70
59234;DHT22;60776;51.702;7.462;2023-06-14T07:18:32;32.20;37.20
59234;DHT22;60776;51.702;7.462;2023-06-14T07:20:57;32.20;37.30
59234;DHT22;60776;51.702;7.462;2023-06-14T07:23:23;32.60;36.60
59234;DHT22;60776;51.702;7.462;2023-06-14T07:25:49;32.00;35.60
59234;DHT22;60776;51.702;7.462;2023-06-14T07:28:16;31.80;36.60
59234;DHT22;60776;51.702;7.462;2023-06-14T07:30:42;31.50;36.10
59234;DHT22;60776;51.702;7.462;2023-06-14T07:33:08;30.90;37.30
59234;DHT22;60776;51.702;7.462;2023-06-14T07:35:34;30.80;37.80
59234;DHT22;60776;51.702;7.462;2023-06-14T07:38:00;31.10;37.80
59234;DHT22;60776;51.702;7.462;2023-06-14T07:40:25;31.70;37.30
59234;DHT22;60776;51.702;7.462;2023-06-14T07:42:51;31.70;36.30
59234;DHT22;60776;51.702;7.462;2023-06-14T07:45:19;31.70;36.50
59234;DHT22;60776;51.702;7.462;2023-06-14T07:47:45;32.20;36.20
59234;DHT22;60776;51.702;7.462;2023-06-14T07:50:10;32.90;35.50
59234;DHT22;60776;51.702;7.462;2023-06-14T07:52:37;33.10;34.20
59234;DHT22;60776;51.702;7.462;2023-06-14T07:55:02;33.00;34.00
59234;DHT22;60776;51.702;7.462;2023-06-14T07:57:28;32.90;33.90
59234;DHT22;60776;51.702;7.462;2023-06-14T07:59:54;33.50;33.70
59234;DHT22;60776;51.702;7.462;2023-06-14T08:02:20;33.90;32.90
59234;DHT22;60776;51.702;7.462;2023-06-14T08:04:45;34.10;32.50
59234;DHT22;60776;51.702;7.462;2023-06-14T08:07:14;33.40;31.90
59234;DHT22;60776;51.702;7.462;2023-06-14T08:09:39;33.40;33.50
59234;DHT22;60776;51.702;7.462;2023-06-14T08:12:06;33.50;32.50
59234;DHT22;60776;51.702;7.462;2023-06-14T08:14:39;33.80;31.80
59234;DHT22;60776;51.702;7.462;2023-06-14T08:17:05;33.10;31.80
59234;DHT22;60776;51.702;7.462;2023-06-14T08:19:31;33.00;32.20
59234;DHT22;60776;51.702;7.462;2023-06-14T08:21:56;33.00;32.00
59234;DHT22;60776;51.702;7.462;2023-06-14T08:24:22;32.60;32.60
59234;DHT22;60776;51.702;7.462;2023-06-14T08:26:52;32.40;33.50
59234;DHT22;60776;51.702;7.462;2023-06-14T08:29:18;32.60;33.50
59234;DHT22;60776;51.702;7.462;2023-06-14T08:31:44;32.90;33.00
59234;DHT22;60776;51.702;7.462;2023-06-14T08:34:09;33.00;32.80
59234;DHT22;60776;51.702;7.462;2023-06-14T08:36:36;33.00;32.80
59234;DHT22;60776;51.702;7.462;2023-06-14T08:39:01;32.80;32.60
59234;DHT22;60776;51.702;7.462;2023-06-14T08:41:28;32.60;33.00
59234;DHT22;60776;51.702;7.462;2023-06-14T08:43:55;32.80;33.00
59234;DHT22;60776;51.702;7.462;2023-06-14T08:46:21;33.10;32.60
59234;DHT22;60776;51.702;7.462;2023-06-14T08:48:52;32.70;32.50
59234;DHT22;60776;51.702;7.462;2023-06-14T08:51:19;32.70;33.00
59234;DHT22;60776;51.702;7.462;2023-06-14T08:53:45;32.80;33.40
59234;DHT22;60776;51.702;7.462;2023-06-14T08:56:12;33.30;33.00
59234;DHT22;60776;51.702;7.462;2023-06-14T08:58:48;33.30;32.30
59234;DHT22;60776;51.702;7.462;2023-06-14T09:01:15;33.00;33.00
59234;DHT22;60776;51.702;7.462;2023-06-14T09:03:43;33.00;32.70
59234;DHT22;60776;51.702;7.462;2023-06-14T09:06:10;32.90;32.60
59234;DHT22;60776;51.702;7.462;2023-06-14T09:08:41;32.80;32.50
59234;DHT22;60776;51.702;7.462;2023-06-14T09:11:08;33.10;32.70
59234;DHT22;60776;51.702;7.462;2023-06-14T09:13:34;33.70;32.60
59234;DHT22;60776;51.702;7.462;2023-06-14T09:16:00;33.90;31.80
59234;DHT22;60776;51.702;7.462;2023-06-14T09:18:37;33.80;31.10
59234;DHT22;60776;51.702;7.462;2023-06-14T09:21:05;34.00;31.40
59234;DHT22;60776;51.702;7.462;2023-06-14T09:23:36;34.00;31.60
59234;DHT22;60776;51.702;7.462;2023-06-14T09:26:15;33.60;31.70
59234;DHT22;60776;51.702;7.462;2023-06-14T09:28:45;34.10;31.50
59234;DHT22;60776;51.702;7.462;2023-06-14T09:31:12;34.10;31.10
59234;DHT22;60776;51.702;7.462;2023-06-14T09:33:38;34.00;31.80
59234;DHT22;60776;51.702;7.462;2023-06-14T09:36:10;34.10;31.20
59234;DHT22;60776;51.702;7.462;2023-06-14T09:38:36;34.00;31.20
59234;DHT22;60776;51.702;7.462;2023-06-14T09:41:03;33.70;31.70
59234;DHT22;60776;51.702;7.462;2023-06-14T09:43:29;33.80;31.60
59234;DHT22;60776;51.702;7.462;2023-06-14T09:45:56;33.90;31.40
59234;DHT22;60776;51.702;7.462;2023-06-14T09:48:21;33.80;31.70
59234;DHT22;60776;51.702;7.462;2023-06-14T09:50:48;33.70;31.20
59234;DHT22;60776;51.702;7.462;2023-06-14T09:53:15;34.10;32.00
59234;DHT22;60776;51.702;7.462;2023-06-14T09:55:42;34.40;30.80
59234;DHT22;60776;51.702;7.462;2023-06-14T09:58:09;34.60;31.20
59234;DHT22;60776;51.702;7.462;2023-06-14T10:00:36;35.20;31.30
59234;DHT22;60776;51.702;7.462;2023-06-14T10:03:13;35.80;30.70
59234;DHT22;60776;51.702;7.462;2023-06-14T10:05:43;35.70;30.00
59234;DHT22;60776;51.702;7.462;2023-06-14T10:08:13;35.00;30.20
59234;DHT22;60776;51.702;7.462;2023-06-14T10:10:39;35.20;30.40
59234;DHT22;60776;51.702;7.462;2023-06-14T10:13:06;35.20;30.90
59234;DHT22;60776;51.702;7.462;2023-06-14T10:15:52;35.40;30.50
59234;DHT22;60776;51.702;7.462;2023-06-14T10:18:33;36.10;30.30
59234;DHT22;60776;51.702;7.462;2023-06-14T10:21:33;36.10;29.70
59234;DHT22;60776;51.702;7.462;2023-06-14T10:24:05;35.80;29.70
59234;DHT22;60776;51.702;7.462;2023-06-14T10:26:32;36.20;29.90
59234;DHT22;60776;51.702;7.462;2023-06-14T10:29:07;36.00;30.60
59234;DHT22;60776;51.702;7.462;2023-06-14T10:31:41;36.60;30.00
59234;DHT22;60776;51.702;7.462;2023-06-14T10:34:07;36.40;30.00
59234;DHT22;60776;51.702;7.462;2023-06-14T10:36:33;36.90;30.40
59234;DHT22;60776;51.702;7.462;2023-06-14T10:41:40;37.60;29.60
59234;DHT22;60776;51.702;7.462;2023-06-14T10:46:38;36.60;30.00
59234;DHT22;60776;51.702;7.462;2023-06-14T10:49:04;36.60;30.60
59234;DHT22;60776;51.702;7.462;2023-06-14T10:51:41;37.10;29.80
59234;DHT22;60776;51.702;7.462;2023-06-14T10:54:15;37.00;29.80
59234;DHT22;60776;51.702;7.462;2023-06-14T10:56:52;36.70;29.80
59234;DHT22;60776;51.702;7.462;2023-06-14T10:59:19;37.40;29.90
59234;DHT22;60776;51.702;7.462;2023-06-14T11:01:57;37.60;29.10
59234;DHT22;60776;51.702;7.462;2023-06-14T11:04:32;37.30;29.30
59234;DHT22;60776;51.702;7.462;2023-06-14T11:10:26;37.40;29.30
59234;DHT22;60776;51.702;7.462;2023-06-14T11:12:55;37.50;29.10
59234;DHT22;60776;51.702;7.462;2023-06-14T11:15:28;37.30;29.00
59234;DHT22;60776;51.702;7.462;2023-06-14T11:17:54;37.40;29.10
59234;DHT22;60776;51.702;7.462;2023-06-14T11:20:25;37.40;29.50
59234;DHT22;60776;51.702;7.462;2023-06-14T11:22:52;37.50;29.80
59234;DHT22;60776;51.702;7.462;2023-06-14T11:25:18;37.50;29.60
59234;DHT22;60776;51.702;7.462;2023-06-14T11:27:44;37.80;29.60
59234;DHT22;60776;51.702;7.462;2023-06-14T11:30:10;38.10;29.10
59234;DHT22;60776;51.702;7.462;2023-06-14T11:32:37;38.20;28.70
59234;DHT22;60776;51.702;7.462;2023-06-14T11:35:03;37.30;28.80
59234;DHT22;60776;51.702;7.462;2023-06-14T11:37:31;36.70;29.50
59234;DHT22;60776;51.702;7.462;2023-06-14T11:40:01;36.30;29.80
59234;DHT22;60776;51.702;7.462;2023-06-14T11:42:29;37.20;29.40
59234;DHT22;60776;51.702;7.462;2023-06-14T11:44:55;37.30;29.30
59234;DHT22;60776;51.702;7.462;2023-06-14T11:47:22;36.80;28.90
59234;DHT22;60776;51.702;7.462;2023-06-14T11:49:47;36.80;29.30
59234;DHT22;60776;51.702;7.462;2023-06-14T11:52:14;36.50;29.40
59234;DHT22;60776;51.702;7.462;2023-06-14T11:54:39;36.50;29.50
59234;DHT22;60776;51.702;7.462;2023-06-14T11:57:09;36.90;30.20
59234;DHT22;60776;51.702;7.462;2023-06-14T11:59:39;36.50;29.90
59234;DHT22;60776;51.702;7.462;2023-06-14T12:02:06;36.40;30.20
59234;DHT22;60776;51.702;7.462;2023-06-14T12:04:32;36.50;29.90
59234;DHT22;60776;51.702;7.462;2023-06-14T12:07:11;36.40;30.40
59234;DHT22;60776;51.702;7.462;2023-06-14T12:12:25;35.30;30.50
59234;DHT22;60776;51.702;7.462;2023-06-14T12:14:51;34.50;31.40
59234;DHT22;60776;51.702;7.462;2023-06-14T12:17:17;34.20;31.30
59234;DHT22;60776;51.702;7.462;2023-06-14T12:19:46;33.40;31.90
59234;DHT22;60776;51.702;7.462;2023-06-14T12:22:13;32.70;33.20
59234;DHT22;60776;51.702;7.462;2023-06-14T12:24:42;32.40;33.20
59234;DHT22;60776;51.702;7.462;2023-06-14T12:27:08;32.20;33.50
59234;DHT22;60776;51.702;7.462;2023-06-14T12:29:34;31.60;33.80
59234;DHT22;60776;51.702;7.462;2023-06-14T12:32:01;31.00;34.30
59234;DHT22;60776;51.702;7.462;2023-06-14T12:34:27;30.40;35.50
59234;DHT22;60776;51.702;7.462;2023-06-14T12:36:53;30.20;36.30
59234;DHT22;60776;51.702;7.462;2023-06-14T12:39:20;29.80;36.80
59234;DHT22;60776;51.702;7.462;2023-06-14T12:41:46;29.20;38.30
59234;DHT22;60776;51.702;7.462;2023-06-14T12:44:13;28.90;38.10
59234;DHT22;60776;51.702;7.462;2023-06-14T12:46:40;28.50;39.00
59234;DHT22;60776;51.702;7.462;2023-06-14T12:49:08;28.30;39.30
59234;DHT22;60776;51.702;7.462;2023-06-14T12:51:34;28.00;40.10
59234;DHT22;60776;51.702;7.462;2023-06-14T12:54:00;27.70;41.20
59234;DHT22;60776;51.702;7.462;2023-06-14T12:56:26;27.50;40.80
59234;DHT22;60776;51.702;7.462;2023-06-14T12:58:51;27.40;41.10
59234;DHT22;60776;51.702;7.462;2023-06-14T13:01:17;27.30;41.50
59234;DHT22;60776;51.702;7.462;2023-06-14T13:03:43;27.10;41.40
59234;DHT22;60776;51.702;7.462;2023-06-14T13:06:09;27.00;42.30
59234;DHT22;60776;51.702;7.462;2023-06-14T13:08:34;26.70;42.20
59234;DHT22;60776;51.702;7.462;2023-06-14T13:11:00;26.60;42.10
59234;DHT22;60776;51.702;7.462;2023-06-14T13:13:26;26.60;41.90
59234;DHT22;60776;51.702;7.462;2023-06-14T13:15:53;26.50;41.70
59234;DHT22;60776;51.702;7.462;2023-06-14T13:18:18;26.30;42.70
59234;DHT22;60776;51.702;7.462;2023-06-14T13:20:46;26.20;43.00
59234;DHT22;60776;51.702;7.462;2023-06-14T13:23:12;26.20;43.20
59234;DHT22;60776;51.702;7.462;2023-06-14T13:25:38;26.10;42.50
59234;DHT22;60776;51.702;7.462;2023-06-14T13:28:06;25.90;42.60
59234;DHT22;60776;51.702;7.462;2023-06-14T13:30:32;26.00;43.20
59234;DHT22;60776;51.702;7.462;2023-06-14T13:32:58;26.20;42.60
59234;DHT22;60776;51.702;7.462;2023-06-14T13:35:24;26.10;42.30
59234;DHT22;60776;51.702;7.462;2023-06-14T13:37:51;26.20;43.10
59234;DHT22;60776;51.702;7.462;2023-06-14T13:40:17;26.40;42.50
59234;DHT22;60776;51.702;7.462;2023-06-14T13:42:42;26.40;42.10
59234;DHT22;60776;51.702;7.462;2023-06-14T13:45:09;26.30;42.40
59234;DHT22;60776;51.702;7.462;2023-06-14T13:47:35;26.20;42.90
59234;DHT22;60776;51.702;7.462;2023-06-14T13:50:01;26.20;42.50
59234;DHT22;60776;51.702;7.462;2023-06-14T13:52:27;26.20;42.20
59234;DHT22;60776;51.702;7.462;2023-06-14T13:54:53;26.20;42.90
59234;DHT22;60776;51.702;7.462;2023-06-14T13:57:20;26.20;42.60
59234;DHT22;60776;51.702;7.462;2023-06-14T13:59:45;26.20;42.20
59234;DHT22;60776;51.702;7.462;2023-06-14T14:02:11;26.20;41.70
59234;DHT22;60776;51.702;7.462;2023-06-14T14:04:38;26.10;42.20
59234;DHT22;60776;51.702;7.462;2023-06-14T14:07:04;26.00;42.40
59234;DHT22;60776;51.702;7.462;2023-06-14T14:09:31;26.10;43.00
59234;DHT22;60776;51.702;7.462;2023-06-14T14:11:58;26.00;42.70
59234;DHT22;60776;51.702;7.462;2023-06-14T14:14:24;26.10;43.00
59234;DHT22;60776;51.702;7.462;2023-06-14T14:16:50;26.50;42.60
59234;DHT22;60776;51.702;7.462;2023-06-14T14:19:20;26.50;42.60
59234;DHT22;60776;51.702;7.462;2023-06-14T14:21:47;26.70;42.00
59234;DHT22;60776;51.702;7.462;2023-06-14T14:24:13;26.50;41.80
59234;DHT22;60776;51.702;7.462;2023-06-14T14:26:39;26.50;41.80
59234;DHT22;60776;51.702;7.462;2023-06-14T14:29:05;26.40;42.50
59234;DHT22;60776;51.702;7.462;2023-06-14T14:31:31;26.50;42.50
59234;DHT22;60776;51.702;7.462;2023-06-14T14:33:56;26.60;42.40
59234;DHT22;60776;51.702;7.462;2023-06-14T14:36:22;26.60;42.10
59234;DHT22;60776;51.702;7.462;2023-06-14T14:38:48;26.60;42.00
59234;DHT22;60776;51.702;7.462;2023-06-14T14:41:13;26.60;41.50
59234;DHT22;60776;51.702;7.462;2023-06-14T14:43:39;26.60;41.90
59234;DHT22;60776;51.702;7.462;2023-06-14T14:46:05;26.50;42.30
59234;DHT22;60776;51.702;7.462;2023-06-14T14:48:31;26.50;42.20
59234;DHT22;60776;51.702;7.462;2023-06-14T14:50:57;26.40;42.20
59234;DHT22;60776;51.702;7.462;2023-06-14T14:53:22;26.60;41.70
59234;DHT22;60776;51.702;7.462;2023-06-14T14:55:48;26.80;42.00
59234;DHT22;60776;51.702;7.462;2023-06-14T14:58:14;27.10;41.40
59234;DHT22;60776;51.702;7.462;2023-06-14T15:00:44;27.00;41.40
59234;DHT22;60776;51.702;7.462;2023-06-14T15:03:10;26.80;41.40
59234;DHT22;60776;51.702;7.462;2023-06-14T15:05:36;26.70;41.60
59234;DHT22;60776;51.702;7.462;2023-06-14T15:08:03;26.50;41.30
59234;DHT22;60776;51.702;7.462;2023-06-14T15:10:29;26.50;41.80
59234;DHT22;60776;51.702;7.462;2023-06-14T15:12:55;26.60;41.50
59234;DHT22;60776;51.702;7.462;2023-06-14T15:15:21;26.60;41.90
59234;DHT22;60776;51.702;7.462;2023-06-14T15:17:47;26.60;41.40
59234;DHT22;60776;51.702;7.462;2023-06-14T15:20:13;26.70;42.60
59234;DHT22;60776;51.702;7.462;2023-06-14T15:22:40;26.70;42.70
59234;DHT22;60776;51.702;7.462;2023-06-14T15:25:06;26.70;42.90
59234;DHT22;60776;51.702;7.462;2023-06-14T15:27:32;26.50;42.70
59234;DHT22;60776;51.702;7.462;2023-06-14T15:29:57;26.40;43.10
59234;DHT22;60776;51.702;7.462;2023-06-14T15:32:23;26.40;43.50
59234;DHT22;60776;51.702;7.462;2023-06-14T15:34:49;26.40;43.20
59234;DHT22;60776;51.702;7.462;2023-06-14T15:37:14;26.50;41.80
59234;DHT22;60776;51.702;7.462;2023-06-14T15:39:40;26.30;42.30
59234;DHT22;60776;51.702;7.462;2023-06-14T15:42:06;26.30;42.50